sensor_id;sensor_type;location;lat;lon;timestamp;P1;durP1;ratioP1;P2;durP2;ratioP2
52274;SDS011;38228;50.940;4.024;2024-02-04T00:01:42;20.30;;;10.15;;
52274;SDS011;38228;50.940;4.024;2024-02-04T00:04:08;22.33;;;10.35;;
52274;SDS011;38228;50.940;4.024;2024-02-04T00:06:33;17.48;;;9.82;;
52274;SDS011;38228;50.940;4.024;2024-02-04T00:08:59;20.65;;;9.95;;
52274;SDS011;38228;50.940;4.024;2024-02-04T00:11:25;23.20;;;10.18;;
52274;SDS011;38228;50.940;4.024;2024-02-04T00:13:50;23.58;;;10.73;;
52274;SDS011;38228;50.940;4.024;2024-02-04T00:16:17;22.58;;;9.88;;
52274;SDS011;38228;50.940;4.024;2024-02-04T00:18:42;21.40;;;9.70;;
52274;SDS011;38228;50.940;4.024;2024-02-04T00:21:08;18.02;;;9.55;;
52274;SDS011;38228;50.940;4.024;2024-02-04T00:23:34;24.52;;;10.95;;
52274;SDS011;38228;50.940;4.024;2024-02-04T00:26:00;22.85;;;10.48;;
52274;SDS011;38228;50.940;4.024;2024-02-04T00:28:25;23.15;;;11.20;;
52274;SDS011;38228;50.940;4.024;2024-02-04T00:30:52;23.90;;;10.90;;
52274;SDS011;38228;50.940;4.024;2024-02-04T00:33:20;24.48;;;11.20;;
52274;SDS011;38228;50.940;4.024;2024-02-04T00:35:46;25.70;;;11.07;;
52274;SDS011;38228;50.940;4.024;2024-02-04T00:38:12;18.90;;;10.27;;
52274;SDS011;38228;50.940;4.024;2024-02-04T00:40:38;19.58;;;10.50;;
52274;SDS011;38228;50.940;4.024;2024-02-04T00:43:04;19.27;;;10.63;;
52274;SDS011;38228;50.940;4.024;2024-02-04T00:45:29;20.30;;;9.93;;
52274;SDS011;38228;50.940;4.024;2024-02-04T00:47:55;21.73;;;10.95;;
52274;SDS011;38228;50.940;4.024;2024-02-04T00:50:21;22.00;;;10.88;;
52274;SDS011;38228;50.940;4.024;2024-02-04T00:52:46;22.42;;;10.80;;
52274;SDS011;38228;50.940;4.024;2024-02-04T00:55:12;24.42;;;11.65;;
52274;SDS011;38228;50.940;4.024;2024-02-04T00:57:38;24.83;;;11.80;;
52274;SDS011;38228;50.940;4.024;2024-02-04T01:00:03;22.73;;;12.23;;
52274;SDS011;38228;50.940;4.024;2024-02-04T01:02:29;22.92;;;11.93;;
52274;SDS011;38228;50.940;4.024;2024-02-04T01:04:55;24.75;;;11.80;;
52274;SDS011;38228;50.940;4.024;2024-02-04T01:07:21;21.20;;;12.07;;
52274;SDS011;38228;50.940;4.024;2024-02-04T01:09:47;21.05;;;12.15;;
52274;SDS011;38228;50.940;4.024;2024-02-04T01:12:12;26.83;;;13.70;;
52274;SDS011;38228;50.940;4.024;2024-02-04T01:14:38;25.13;;;12.25;;
52274;SDS011;38228;50.940;4.024;2024-02-04T01:17:04;25.45;;;12.63;;
52274;SDS011;38228;50.940;4.024;2024-02-04T01:19:30;27.85;;;13.20;;
52274;SDS011;38228;50.940;4.024;2024-02-04T01:21:55;24.45;;;13.18;;
52274;SDS011;38228;50.940;4.024;2024-02-04T01:24:23;26.90;;;12.70;;
52274;SDS011;38228;50.940;4.024;2024-02-04T01:26:49;24.63;;;11.88;;
52274;SDS011;38228;50.940;4.024;2024-02-04T01:29:14;25.73;;;12.27;;
52274;SDS011;38228;50.940;4.024;2024-02-04T01:31:40;20.67;;;11.38;;
52274;SDS011;38228;50.940;4.024;2024-02-04T01:34:06;20.92;;;12.15;;
52274;SDS011;38228;50.940;4.024;2024-02-04T01:36:31;26.52;;;11.63;;
52274;SDS011;38228;50.940;4.024;2024-02-04T01:38:57;23.88;;;11.38;;
52274;SDS011;38228;50.940;4.024;2024-02-04T01:41:23;24.88;;;11.35;;
52274;SDS011;38228;50.940;4.024;2024-02-04T01:43:51;24.95;;;10.25;;
52274;SDS011;38228;50.940;4.024;2024-02-04T01:46:17;17.88;;;10.15;;
52274;SDS011;38228;50.940;4.024;2024-02-04T01:48:43;24.50;;;10.52;;
52274;SDS011;38228;50.940;4.024;2024-02-04T01:51:08;24.50;;;10.75;;
52274;SDS011;38228;50.940;4.024;2024-02-04T01:53:35;22.67;;;10.25;;
52274;SDS011;38228;50.940;4.024;2024-02-04T01:56:03;21.85;;;9.95;;
52274;SDS011;38228;50.940;4.024;2024-02-04T01:58:30;18.98;;;10.35;;
52274;SDS011;38228;50.940;4.024;2024-02-04T02:00:56;20.10;;;9.98;;
52274;SDS011;38228;50.940;4.024;2024-02-04T02:03:22;25.90;;;10.30;;
52274;SDS011;38228;50.940;4.024;2024-02-04T02:05:49;20.08;;;9.88;;
52274;SDS011;38228;50.940;4.024;2024-02-04T02:08:15;23.45;;;10.70;;
52274;SDS011;38228;50.940;4.024;2024-02-04T02:10:41;22.52;;;10.05;;
52274;SDS011;38228;50.940;4.024;2024-02-04T02:13:14;24.60;;;10.65;;
52274;SDS011;38228;50.940;4.024;2024-02-04T02:15:45;21.13;;;9.95;;
52274;SDS011;38228;50.940;4.024;2024-02-04T02:18:15;27.25;;;10.15;;
52274;SDS011;38228;50.940;4.024;2024-02-04T02:26:40;27.67;;;10.90;;
52274;SDS011;38228;50.940;4.024;2024-02-04T02:29:06;21.98;;;10.40;;
52274;SDS011;38228;50.940;4.024;2024-02-04T02:31:33;25.48;;;10.95;;
52274;SDS011;38228;50.940;4.024;2024-02-04T02:34:01;25.80;;;10.88;;
52274;SDS011;38228;50.940;4.024;2024-02-04T02:36:27;29.33;;;10.75;;
52274;SDS011;38228;50.940;4.024;2024-02-04T02:39:02;31.67;;;11.25;;
52274;SDS011;38228;50.940;4.024;2024-02-04T02:41:40;31.52;;;11.43;;
52274;SDS011;38228;50.940;4.024;2024-02-04T02:44:08;23.08;;;10.63;;
52274;SDS011;38228;50.940;4.024;2024-02-04T02:46:35;31.45;;;11.40;;
52274;SDS011;38228;50.940;4.024;2024-02-04T02:49:02;27.55;;;10.48;;
52274;SDS011;38228;50.940;4.024;2024-02-04T02:51:28;32.08;;;10.65;;
52274;SDS011;38228;50.940;4.024;2024-02-04T02:53:54;35.58;;;11.15;;
52274;SDS011;38228;50.940;4.024;2024-02-04T02:56:20;29.70;;;10.35;;
52274;SDS011;38228;50.940;4.024;2024-02-04T02:58:46;26.73;;;9.73;;
52274;SDS011;38228;50.940;4.024;2024-02-04T03:01:11;24.40;;;8.98;;
52274;SDS011;38228;50.940;4.024;2024-02-04T03:03:37;22.10;;;9.10;;
52274;SDS011;38228;50.940;4.024;2024-02-04T03:06:02;22.75;;;8.90;;
52274;SDS011;38228;50.940;4.024;2024-02-04T03:08:28;21.30;;;8.60;;
52274;SDS011;38228;50.940;4.024;2024-02-04T03:10:54;20.48;;;8.68;;
52274;SDS011;38228;50.940;4.024;2024-02-04T03:13:19;17.98;;;8.73;;
52274;SDS011;38228;50.940;4.024;2024-02-04T03:15:45;22.48;;;8.80;;
52274;SDS011;38228;50.940;4.024;2024-02-04T03:18:11;26.88;;;10.50;;
52274;SDS011;38228;50.940;4.024;2024-02-04T03:20:36;25.27;;;10.23;;
52274;SDS011;38228;50.940;4.024;2024-02-04T03:23:02;23.65;;;10.05;;
52274;SDS011;38228;50.940;4.024;2024-02-04T03:25:28;25.08;;;9.85;;
52274;SDS011;38228;50.940;4.024;2024-02-04T03:27:54;23.88;;;10.07;;
52274;SDS011;38228;50.940;4.024;2024-02-04T03:30:20;21.50;;;10.18;;
52274;SDS011;38228;50.940;4.024;2024-02-04T03:32:46;21.92;;;10.63;;
52274;SDS011;38228;50.940;4.024;2024-02-04T03:35:12;27.77;;;11.85;;
52274;SDS011;38228;50.940;4.024;2024-02-04T03:37:37;26.60;;;11.80;;
52274;SDS011;38228;50.940;4.024;2024-02-04T03:40:03;26.92;;;10.90;;
52274;SDS011;38228;50.940;4.024;2024-02-04T03:42:29;24.70;;;12.50;;
52274;SDS011;38228;50.940;4.024;2024-02-04T03:44:55;27.40;;;12.18;;
52274;SDS011;38228;50.940;4.024;2024-02-04T03:47:21;26.15;;;13.80;;
52274;SDS011;38228;50.940;4.024;2024-02-04T03:49:46;22.98;;;12.45;;
52274;SDS011;38228;50.940;4.024;2024-02-04T03:52:12;29.27;;;13.70;;
52274;SDS011;38228;50.940;4.024;2024-02-04T03:54:38;29.77;;;13.52;;
52274;SDS011;38228;50.940;4.024;2024-02-04T03:57:03;30.88;;;13.70;;
52274;SDS011;38228;50.940;4.024;2024-02-04T03:59:29;25.25;;;12.95;;
52274;SDS011;38228;50.940;4.024;2024-02-04T04:01:55;30.35;;;13.15;;
52274;SDS011;38228;50.940;4.024;2024-02-04T04:04:22;28.70;;;13.30;;
52274;SDS011;38228;50.940;4.024;2024-02-04T04:06:48;29.02;;;13.82;;
52274;SDS011;38228;50.940;4.024;2024-02-04T04:09:14;27.50;;;13.88;;
52274;SDS011;38228;50.940;4.024;2024-02-04T04:11:40;27.23;;;13.23;;
52274;SDS011;38228;50.940;4.024;2024-02-04T04:14:06;31.67;;;13.63;;
52274;SDS011;38228;50.940;4.024;2024-02-04T04:16:31;31.58;;;14.20;;
52274;SDS011;38228;50.940;4.024;2024-02-04T04:18:57;30.55;;;13.15;;
52274;SDS011;38228;50.940;4.024;2024-02-04T04:21:25;29.92;;;13.70;;
52274;SDS011;38228;50.940;4.024;2024-02-04T04:23:51;32.25;;;13.80;;
52274;SDS011;38228;50.940;4.024;2024-02-04T04:26:17;39.35;;;14.43;;
52274;SDS011;38228;50.940;4.024;2024-02-04T04:28:42;31.27;;;13.18;;
52274;SDS011;38228;50.940;4.024;2024-02-04T04:31:08;30.55;;;13.00;;
52274;SDS011;38228;50.940;4.024;2024-02-04T04:33:34;35.70;;;13.45;;
52274;SDS011;38228;50.940;4.024;2024-02-04T04:36:01;30.35;;;13.68;;
52274;SDS011;38228;50.940;4.024;2024-02-04T04:38:26;31.67;;;13.77;;
52274;SDS011;38228;50.940;4.024;2024-02-04T04:40:52;30.20;;;12.90;;
52274;SDS011;38228;50.940;4.024;2024-02-04T04:43:18;34.67;;;12.70;;
52274;SDS011;38228;50.940;4.024;2024-02-04T04:45:44;32.72;;;12.93;;
52274;SDS011;38228;50.940;4.024;2024-02-04T04:48:09;24.73;;;12.05;;
52274;SDS011;38228;50.940;4.024;2024-02-04T04:50:35;26.25;;;11.82;;
52274;SDS011;38228;50.940;4.024;2024-02-04T04:53:01;28.55;;;12.50;;
52274;SDS011;38228;50.940;4.024;2024-02-04T04:55:27;29.77;;;11.48;;
52274;SDS011;38228;50.940;4.024;2024-02-04T04:57:53;23.90;;;10.55;;
52274;SDS011;38228;50.940;4.024;2024-02-04T05:00:18;24.80;;;10.68;;
52274;SDS011;38228;50.940;4.024;2024-02-04T05:02:44;28.55;;;9.75;;
52274;SDS011;38228;50.940;4.024;2024-02-04T05:05:13;25.73;;;10.15;;
52274;SDS011;38228;50.940;4.024;2024-02-04T05:07:39;19.55;;;9.65;;
52274;SDS011;38228;50.940;4.024;2024-02-04T05:10:05;23.38;;;10.57;;
52274;SDS011;38228;50.940;4.024;2024-02-04T05:12:32;25.92;;;10.52;;
52274;SDS011;38228;50.940;4.024;2024-02-04T05:14:58;23.15;;;10.05;;
52274;SDS011;38228;50.940;4.024;2024-02-04T05:17:24;24.90;;;10.32;;
52274;SDS011;38228;50.940;4.024;2024-02-04T05:19:49;30.17;;;10.85;;
52274;SDS011;38228;50.940;4.024;2024-02-04T05:22:15;32.65;;;10.80;;
52274;SDS011;38228;50.940;4.024;2024-02-04T05:24:41;29.00;;;10.60;;
52274;SDS011;38228;50.940;4.024;2024-02-04T05:27:07;24.77;;;10.57;;
52274;SDS011;38228;50.940;4.024;2024-02-04T05:29:33;28.50;;;10.43;;
52274;SDS011;38228;50.940;4.024;2024-02-04T05:31:58;32.55;;;11.38;;
52274;SDS011;38228;50.940;4.024;2024-02-04T05:34:24;27.90;;;10.77;;
52274;SDS011;38228;50.940;4.024;2024-02-04T05:36:50;24.17;;;10.20;;
52274;SDS011;38228;50.940;4.024;2024-02-04T05:39:15;30.38;;;10.77;;
52274;SDS011;38228;50.940;4.024;2024-02-04T05:41:42;40.15;;;12.45;;
52274;SDS011;38228;50.940;4.024;2024-02-04T05:44:08;37.28;;;13.63;;
52274;SDS011;38228;50.940;4.024;2024-02-04T05:46:36;35.90;;;14.10;;
52274;SDS011;38228;50.940;4.024;2024-02-04T05:49:02;30.35;;;13.63;;
52274;SDS011;38228;50.940;4.024;2024-02-04T05:51:28;34.97;;;14.07;;
52274;SDS011;38228;50.940;4.024;2024-02-04T05:53:54;37.08;;;15.95;;
52274;SDS011;38228;50.940;4.024;2024-02-04T05:56:20;36.10;;;15.77;;
52274;SDS011;38228;50.940;4.024;2024-02-04T05:58:46;35.08;;;17.77;;
52274;SDS011;38228;50.940;4.024;2024-02-04T06:01:12;38.05;;;17.65;;
52274;SDS011;38228;50.940;4.024;2024-02-04T06:03:41;38.60;;;16.48;;
52274;SDS011;38228;50.940;4.024;2024-02-04T06:06:07;38.15;;;16.58;;
52274;SDS011;38228;50.940;4.024;2024-02-04T06:08:33;38.35;;;16.70;;
52274;SDS011;38228;50.940;4.024;2024-02-04T06:10:59;32.40;;;16.15;;
52274;SDS011;38228;50.940;4.024;2024-02-04T06:13:24;34.28;;;16.60;;
52274;SDS011;38228;50.940;4.024;2024-02-04T06:15:50;35.58;;;15.23;;
52274;SDS011;38228;50.940;4.024;2024-02-04T06:18:16;33.10;;;15.45;;
52274;SDS011;38228;50.940;4.024;2024-02-04T06:20:42;32.13;;;14.45;;
52274;SDS011;38228;50.940;4.024;2024-02-04T06:23:08;25.48;;;12.88;;
52274;SDS011;38228;50.940;4.024;2024-02-04T06:25:33;26.38;;;12.82;;
52274;SDS011;38228;50.940;4.024;2024-02-04T06:27:59;29.10;;;12.95;;
52274;SDS011;38228;50.940;4.024;2024-02-04T06:30:25;33.53;;;13.15;;
52274;SDS011;38228;50.940;4.024;2024-02-04T06:32:50;24.38;;;11.93;;
52274;SDS011;38228;50.940;4.024;2024-02-04T06:35:16;24.17;;;10.85;;
52274;SDS011;38228;50.940;4.024;2024-02-04T06:37:42;19.05;;;9.18;;
52274;SDS011;38228;50.940;4.024;2024-02-04T06:40:10;19.27;;;9.43;;
52274;SDS011;38228;50.940;4.024;2024-02-04T06:42:36;28.27;;;9.95;;
52274;SDS011;38228;50.940;4.024;2024-02-04T06:45:02;21.08;;;9.57;;
52274;SDS011;38228;50.940;4.024;2024-02-04T06:47:27;22.48;;;9.65;;
52274;SDS011;38228;50.940;4.024;2024-02-04T06:49:53;29.35;;;10.40;;
52274;SDS011;38228;50.940;4.024;2024-02-04T06:52:19;21.17;;;9.85;;
52274;SDS011;38228;50.940;4.024;2024-02-04T06:54:44;23.60;;;10.35;;
52274;SDS011;38228;50.940;4.024;2024-02-04T06:57:10;23.33;;;9.73;;
52274;SDS011;38228;50.940;4.024;2024-02-04T06:59:36;19.10;;;9.15;;
52274;SDS011;38228;50.940;4.024;2024-02-04T07:02:01;20.05;;;9.20;;
52274;SDS011;38228;50.940;4.024;2024-02-04T07:04:27;19.88;;;9.10;;
52274;SDS011;38228;50.940;4.024;2024-02-04T07:06:53;22.27;;;9.00;;
52274;SDS011;38228;50.940;4.024;2024-02-04T07:09:19;19.92;;;8.57;;
52274;SDS011;38228;50.940;4.024;2024-02-04T07:11:44;25.10;;;9.13;;
52274;SDS011;38228;50.940;4.024;2024-02-04T07:14:11;21.00;;;7.90;;
52274;SDS011;38228;50.940;4.024;2024-02-04T07:16:36;19.17;;;7.78;;
52274;SDS011;38228;50.940;4.024;2024-02-04T07:19:02;18.17;;;8.07;;
52274;SDS011;38228;50.940;4.024;2024-02-04T07:21:28;18.77;;;8.10;;
52274;SDS011;38228;50.940;4.024;2024-02-04T07:23:53;16.98;;;8.00;;
52274;SDS011;38228;50.940;4.024;2024-02-04T07:26:19;23.45;;;8.35;;
52274;SDS011;38228;50.940;4.024;2024-02-04T07:28:44;24.90;;;8.48;;
52274;SDS011;38228;50.940;4.024;2024-02-04T07:31:10;20.80;;;8.10;;
52274;SDS011;38228;50.940;4.024;2024-02-04T07:33:36;16.02;;;7.75;;
52274;SDS011;38228;50.940;4.024;2024-02-04T07:36:02;22.50;;;8.63;;
52274;SDS011;38228;50.940;4.024;2024-02-04T07:38:27;21.60;;;9.25;;
52274;SDS011;38228;50.940;4.024;2024-02-04T07:40:53;20.33;;;9.95;;
52274;SDS011;38228;50.940;4.024;2024-02-04T07:43:21;20.17;;;10.75;;
52274;SDS011;38228;50.940;4.024;2024-02-04T07:45:47;24.42;;;11.13;;
52274;SDS011;38228;50.940;4.024;2024-02-04T07:48:13;26.80;;;13.23;;
52274;SDS011;38228;50.940;4.024;2024-02-04T07:50:38;27.52;;;13.30;;
52274;SDS011;38228;50.940;4.024;2024-02-04T07:53:04;25.52;;;13.75;;
52274;SDS011;38228;50.940;4.024;2024-02-04T07:55:30;29.95;;;13.93;;
52274;SDS011;38228;50.940;4.024;2024-02-04T07:57:55;26.17;;;13.10;;
52274;SDS011;38228;50.940;4.024;2024-02-04T08:00:21;22.80;;;12.52;;
52274;SDS011;38228;50.940;4.024;2024-02-04T08:02:46;20.20;;;10.98;;
52274;SDS011;38228;50.940;4.024;2024-02-04T08:05:12;26.63;;;10.85;;
52274;SDS011;38228;50.940;4.024;2024-02-04T08:07:38;23.13;;;10.02;;
52274;SDS011;38228;50.940;4.024;2024-02-04T08:10:04;23.67;;;9.88;;
52274;SDS011;38228;50.940;4.024;2024-02-04T08:12:31;17.45;;;8.38;;
52274;SDS011;38228;50.940;4.024;2024-02-04T08:14:56;15.98;;;8.38;;
52274;SDS011;38228;50.940;4.024;2024-02-04T08:17:22;17.02;;;7.72;;
52274;SDS011;38228;50.940;4.024;2024-02-04T08:19:47;20.15;;;8.80;;
52274;SDS011;38228;50.940;4.024;2024-02-04T08:22:13;20.27;;;9.32;;
52274;SDS011;38228;50.940;4.024;2024-02-04T08:24:39;21.15;;;9.68;;
52274;SDS011;38228;50.940;4.024;2024-02-04T08:27:05;24.23;;;10.43;;
52274;SDS011;38228;50.940;4.024;2024-02-04T08:29:30;21.85;;;9.90;;
52274;SDS011;38228;50.940;4.024;2024-02-04T08:31:56;25.38;;;10.80;;
52274;SDS011;38228;50.940;4.024;2024-02-04T08:34:22;22.05;;;11.10;;
52274;SDS011;38228;50.940;4.024;2024-02-04T08:36:51;19.13;;;10.00;;
52274;SDS011;38228;50.940;4.024;2024-02-04T08:39:17;22.15;;;9.60;;
52274;SDS011;38228;50.940;4.024;2024-02-04T08:41:42;19.63;;;9.35;;
52274;SDS011;38228;50.940;4.024;2024-02-04T08:44:08;24.00;;;8.93;;
52274;SDS011;38228;50.940;4.024;2024-02-04T08:46:34;15.15;;;7.90;;
52274;SDS011;38228;50.940;4.024;2024-02-04T08:48:59;16.48;;;7.10;;
52274;SDS011;38228;50.940;4.024;2024-02-04T08:51:25;18.13;;;7.85;;
52274;SDS011;38228;50.940;4.024;2024-02-04T08:53:51;16.27;;;6.97;;
52274;SDS011;38228;50.940;4.024;2024-02-04T08:56:17;20.73;;;6.53;;
52274;SDS011;38228;50.940;4.024;2024-02-04T08:58:44;15.93;;;6.03;;
52274;SDS011;38228;50.940;4.024;2024-02-04T09:01:10;14.95;;;5.97;;
52274;SDS011;38228;50.940;4.024;2024-02-04T09:03:36;14.82;;;5.03;;
52274;SDS011;38228;50.940;4.024;2024-02-04T09:06:02;15.18;;;4.88;;
52274;SDS011;38228;50.940;4.024;2024-02-04T09:08:27;12.85;;;4.45;;
52274;SDS011;38228;50.940;4.024;2024-02-04T09:10:53;12.52;;;4.25;;
52274;SDS011;38228;50.940;4.024;2024-02-04T09:13:19;13.30;;;3.97;;
52274;SDS011;38228;50.940;4.024;2024-02-04T09:15:44;14.68;;;4.38;;
52274;SDS011;38228;50.940;4.024;2024-02-04T09:18:10;17.08;;;5.68;;
52274;SDS011;38228;50.940;4.024;2024-02-04T09:20:35;10.85;;;4.30;;
52274;SDS011;38228;50.940;4.024;2024-02-04T09:23:01;15.18;;;7.45;;
52274;SDS011;38228;50.940;4.024;2024-02-04T09:25:28;12.40;;;5.38;;
52274;SDS011;38228;50.940;4.024;2024-02-04T09:27:54;15.50;;;5.25;;
52274;SDS011;38228;50.940;4.024;2024-02-04T09:30:20;13.15;;;4.25;;
52274;SDS011;38228;50.940;4.024;2024-02-04T09:32:45;13.60;;;4.93;;
52274;SDS011;38228;50.940;4.024;2024-02-04T09:35:11;14.23;;;5.30;;
52274;SDS011;38228;50.940;4.024;2024-02-04T09:37:37;10.75;;;5.00;;
52274;SDS011;38228;50.940;4.024;2024-02-04T09:40:03;16.85;;;5.28;;
52274;SDS011;38228;50.940;4.024;2024-02-04T09:42:29;13.05;;;5.28;;
52274;SDS011;38228;50.940;4.024;2024-02-04T09:44:57;14.27;;;5.50;;
52274;SDS011;38228;50.940;4.024;2024-02-04T09:47:23;19.38;;;5.05;;
52274;SDS011;38228;50.940;4.024;2024-02-04T09:49:49;12.57;;;4.40;;
52274;SDS011;38228;50.940;4.024;2024-02-04T09:52:17;14.98;;;5.13;;
52274;SDS011;38228;50.940;4.024;2024-02-04T09:54:49;10.20;;;4.30;;
52274;SDS011;38228;50.940;4.024;2024-02-04T09:57:21;9.32;;;3.80;;
52274;SDS011;38228;50.940;4.024;2024-02-04T09:59:47;10.45;;;4.18;;
52274;SDS011;38228;50.940;4.024;2024-02-04T10:02:13;11.32;;;4.75;;
52274;SDS011;38228;50.940;4.024;2024-02-04T10:04:40;10.00;;;4.97;;
52274;SDS011;38228;50.940;4.024;2024-02-04T10:07:06;16.20;;;5.30;;
52274;SDS011;38228;50.940;4.024;2024-02-04T10:09:32;9.85;;;5.00;;
52274;SDS011;38228;50.940;4.024;2024-02-04T10:11:58;15.80;;;5.72;;
52274;SDS011;38228;50.940;4.024;2024-02-04T10:14:24;14.60;;;5.45;;
52274;SDS011;38228;50.940;4.024;2024-02-04T10:16:49;9.85;;;5.30;;
52274;SDS011;38228;50.940;4.024;2024-02-04T10:19:16;10.63;;;4.93;;
52274;SDS011;38228;50.940;4.024;2024-02-04T10:21:41;16.20;;;5.25;;
52274;SDS011;38228;50.940;4.024;2024-02-04T10:24:07;15.75;;;4.97;;
52274;SDS011;38228;50.940;4.024;2024-02-04T10:26:33;12.88;;;4.82;;
52274;SDS011;38228;50.940;4.024;2024-02-04T10:29:02;8.45;;;4.72;;
52274;SDS011;38228;50.940;4.024;2024-02-04T10:31:28;12.77;;;5.40;;
52274;SDS011;38228;50.940;4.024;2024-02-04T10:33:54;11.05;;;5.10;;
52274;SDS011;38228;50.940;4.024;2024-02-04T10:36:20;13.48;;;4.72;;
52274;SDS011;38228;50.940;4.024;2024-02-04T10:38:46;10.27;;;4.65;;
52274;SDS011;38228;50.940;4.024;2024-02-04T10:41:14;11.48;;;4.43;;
52274;SDS011;38228;50.940;4.024;2024-02-04T10:43:41;10.43;;;4.10;;
52274;SDS011;38228;50.940;4.024;2024-02-04T10:46:18;15.52;;;5.63;;
52274;SDS011;38228;50.940;4.024;2024-02-04T10:48:45;15.00;;;5.53;;
52274;SDS011;38228;50.940;4.024;2024-02-04T10:51:20;8.60;;;3.72;;
52274;SDS011;38228;50.940;4.024;2024-02-04T10:53:53;14.52;;;4.57;;
52274;SDS011;38228;50.940;4.024;2024-02-04T10:59:03;7.63;;;3.45;;
52274;SDS011;38228;50.940;4.024;2024-02-04T11:01:30;11.43;;;4.03;;
52274;SDS011;38228;50.940;4.024;2024-02-04T11:03:57;11.50;;;4.32;;
52274;SDS011;38228;50.940;4.024;2024-02-04T11:06:24;9.50;;;3.60;;
52274;SDS011;38228;50.940;4.024;2024-02-04T11:08:53;10.02;;;2.90;;
52274;SDS011;38228;50.940;4.024;2024-02-04T11:11:21;9.32;;;3.10;;
52274;SDS011;38228;50.940;4.024;2024-02-04T11:13:49;8.20;;;2.75;;
52274;SDS011;38228;50.940;4.024;2024-02-04T11:16:44;8.80;;;3.38;;
52274;SDS011;38228;50.940;4.024;2024-02-04T11:22:15;10.95;;;3.47;;
52274;SDS011;38228;50.940;4.024;2024-02-04T11:27:24;11.77;;;3.38;;
52274;SDS011;38228;50.940;4.024;2024-02-04T11:29:50;12.25;;;4.72;;
52274;SDS011;38228;50.940;4.024;2024-02-04T11:32:17;7.13;;;2.70;;
52274;SDS011;38228;50.940;4.024;2024-02-04T11:34:43;9.98;;;3.40;;
52274;SDS011;38228;50.940;4.024;2024-02-04T11:37:19;8.88;;;3.10;;
52274;SDS011;38228;50.940;4.024;2024-02-04T11:39:51;5.18;;;2.97;;
52274;SDS011;38228;50.940;4.024;2024-02-04T11:42:18;7.03;;;3.03;;
52274;SDS011;38228;50.940;4.024;2024-02-04T11:44:45;10.02;;;3.80;;
52274;SDS011;38228;50.940;4.024;2024-02-04T11:47:11;13.25;;;4.25;;
52274;SDS011;38228;50.940;4.024;2024-02-04T11:49:53;8.10;;;3.72;;
52274;SDS011;38228;50.940;4.024;2024-02-04T11:52:20;8.65;;;4.15;;
52274;SDS011;38228;50.940;4.024;2024-02-04T11:54:45;7.53;;;3.40;;
52274;SDS011;38228;50.940;4.024;2024-02-04T11:57:11;13.00;;;3.85;;
52274;SDS011;38228;50.940;4.024;2024-02-04T11:59:39;8.43;;;3.45;;
52274;SDS011;38228;50.940;4.024;2024-02-04T12:02:05;14.23;;;4.40;;
52274;SDS011;38228;50.940;4.024;2024-02-04T12:04:31;9.43;;;4.07;;
52274;SDS011;38228;50.940;4.024;2024-02-04T12:06:57;9.90;;;3.60;;
52274;SDS011;38228;50.940;4.024;2024-02-04T12:09:23;8.80;;;3.78;;
52274;SDS011;38228;50.940;4.024;2024-02-04T12:11:51;9.73;;;4.10;;
52274;SDS011;38228;50.940;4.024;2024-02-04T12:14:19;8.40;;;3.50;;
52274;SDS011;38228;50.940;4.024;2024-02-04T12:16:45;9.77;;;3.42;;
52274;SDS011;38228;50.940;4.024;2024-02-04T12:19:10;9.50;;;3.60;;
52274;SDS011;38228;50.940;4.024;2024-02-04T12:21:36;8.43;;;4.00;;
52274;SDS011;38228;50.940;4.024;2024-02-04T12:24:02;7.70;;;3.20;;
52274;SDS011;38228;50.940;4.024;2024-02-04T12:26:29;9.73;;;3.70;;
52274;SDS011;38228;50.940;4.024;2024-02-04T12:28:55;8.10;;;3.40;;
52274;SDS011;38228;50.940;4.024;2024-02-04T12:31:24;8.95;;;3.33;;
52274;SDS011;38228;50.940;4.024;2024-02-04T12:33:54;11.10;;;3.60;;
52274;SDS011;38228;50.940;4.024;2024-02-04T12:36:26;11.23;;;3.17;;
52274;SDS011;38228;50.940;4.024;2024-02-04T12:38:55;10.43;;;3.38;;
52274;SDS011;38228;50.940;4.024;2024-02-04T12:41:34;9.07;;;3.00;;
52274;SDS011;38228;50.940;4.024;2024-02-04T12:44:00;7.72;;;2.55;;
52274;SDS011;38228;50.940;4.024;2024-02-04T12:46:28;9.20;;;2.55;;
52274;SDS011;38228;50.940;4.024;2024-02-04T12:48:55;9.50;;;3.67;;
52274;SDS011;38228;50.940;4.024;2024-02-04T12:51:29;6.78;;;2.60;;
52274;SDS011;38228;50.940;4.024;2024-02-04T12:54:28;8.32;;;3.45;;
52274;SDS011;38228;50.940;4.024;2024-02-04T12:59:24;5.65;;;2.65;;
52274;SDS011;38228;50.940;4.024;2024-02-04T13:01:59;7.97;;;2.45;;
52274;SDS011;38228;50.940;4.024;2024-02-04T13:04:36;8.90;;;3.40;;
52274;SDS011;38228;50.940;4.024;2024-02-04T13:07:06;7.93;;;2.95;;
52274;SDS011;38228;50.940;4.024;2024-02-04T13:09:34;7.53;;;2.55;;
52274;SDS011;38228;50.940;4.024;2024-02-04T13:12:04;7.72;;;3.05;;
52274;SDS011;38228;50.940;4.024;2024-02-04T13:14:31;6.70;;;2.30;;
52274;SDS011;38228;50.940;4.024;2024-02-04T13:16:57;6.40;;;2.47;;
52274;SDS011;38228;50.940;4.024;2024-02-04T13:19:23;7.72;;;2.97;;
52274;SDS011;38228;50.940;4.024;2024-02-04T13:21:48;6.95;;;2.83;;
52274;SDS011;38228;50.940;4.024;2024-02-04T13:24:14;9.50;;;2.90;;
52274;SDS011;38228;50.940;4.024;2024-02-04T13:26:40;7.70;;;2.67;;
52274;SDS011;38228;50.940;4.024;2024-02-04T13:29:05;5.57;;;2.53;;
52274;SDS011;38228;50.940;4.024;2024-02-04T13:31:31;5.35;;;2.60;;
52274;SDS011;38228;50.940;4.024;2024-02-04T13:33:57;9.82;;;3.28;;
52274;SDS011;38228;50.940;4.024;2024-02-04T13:36:23;5.65;;;2.97;;
52274;SDS011;38228;50.940;4.024;2024-02-04T13:38:49;7.65;;;3.20;;
52274;SDS011;38228;50.940;4.024;2024-02-04T13:41:15;4.28;;;2.60;;
52274;SDS011;38228;50.940;4.024;2024-02-04T13:43:40;13.10;;;3.40;;
52274;SDS011;38228;50.940;4.024;2024-02-04T13:46:08;7.97;;;3.28;;
52274;SDS011;38228;50.940;4.024;2024-02-04T13:48:34;10.40;;;3.03;;
52274;SDS011;38228;50.940;4.024;2024-02-04T13:51:00;8.80;;;3.20;;
52274;SDS011;38228;50.940;4.024;2024-02-04T13:53:26;9.38;;;3.42;;
52274;SDS011;38228;50.940;4.024;2024-02-04T13:55:52;12.10;;;3.97;;
52274;SDS011;38228;50.940;4.024;2024-02-04T13:58:18;15.02;;;4.00;;
52274;SDS011;38228;50.940;4.024;2024-02-04T14:00:44;13.07;;;4.05;;
52274;SDS011;38228;50.940;4.024;2024-02-04T14:03:10;15.13;;;4.03;;
52274;SDS011;38228;50.940;4.024;2024-02-04T14:05:38;11.13;;;3.92;;
52274;SDS011;38228;50.940;4.024;2024-02-04T14:08:04;9.32;;;3.63;;
52274;SDS011;38228;50.940;4.024;2024-02-04T14:10:31;11.20;;;3.63;;
52274;SDS011;38228;50.940;4.024;2024-02-04T14:12:57;13.07;;;3.78;;
52274;SDS011;38228;50.940;4.024;2024-02-04T14:15:22;17.05;;;3.88;;
52274;SDS011;38228;50.940;4.024;2024-02-04T14:17:48;12.27;;;3.50;;
52274;SDS011;38228;50.940;4.024;2024-02-04T14:20:14;10.18;;;3.70;;
52274;SDS011;38228;50.940;4.024;2024-02-04T14:22:40;9.48;;;3.40;;
52274;SDS011;38228;50.940;4.024;2024-02-04T14:25:06;15.98;;;3.85;;
52274;SDS011;38228;50.940;4.024;2024-02-04T14:27:32;13.25;;;3.50;;
52274;SDS011;38228;50.940;4.024;2024-02-04T14:29:57;19.65;;;4.15;;
52274;SDS011;38228;50.940;4.024;2024-02-04T14:32:23;14.50;;;4.15;;
52274;SDS011;38228;50.940;4.024;2024-02-04T14:34:49;13.90;;;4.20;;
52274;SDS011;38228;50.940;4.024;2024-02-04T14:37:15;12.68;;;3.33;;
52274;SDS011;38228;50.940;4.024;2024-02-04T14:39:41;14.48;;;4.50;;
52274;SDS011;38228;50.940;4.024;2024-02-04T14:42:09;12.77;;;4.15;;
52274;SDS011;38228;50.940;4.024;2024-02-04T14:44:35;14.45;;;3.65;;